Flight Track Log - Related Links

Times and Time Zones

All times are in EDT time to prevent confusion due to time zone crossing. See the UAL1 flight status page for this flight to view local times or setup timezone preferences in your user account.

Time Position Orientation Groundspeed Altitude Reporting Facility
EDT Latitude Longitude Course Direction KTS MPH feet Rate Location/Type
Mon 11:02:11 AM 29.9555 -95.3390 235° Southwest 180 207 1,000  Level FlightAware ADS-B
Mon 11:02:17 AM 29.9500 -95.3389 179° South 181 208 1,300 2,727 Climbing FlightAware ADS-B
Mon 11:02:22 AM 29.9458 -95.3401 194° South 186 214 1,500 1,500 Climbing FlightAware ADS-B
Mon 11:02:25 AM 29.9434 -95.3413 203° Southwest 190 219 1,500 857 Level FlightAware ADS-B
Mon 11:02:29 AM 29.9401 -95.3437 212° Southwest 198 228 1,600 1,500 Climbing FlightAware ADS-B
Mon 11:02:33 AM 29.9376 -95.3461 220° Southwest 206 237 1,700 1,714 Climbing FlightAware ADS-B
Mon 11:02:36 AM 29.9355 -95.3489 229° Southwest 209 241 1,800 1,385 Climbing FlightAware ADS-B
Mon 11:02:46 AM 29.9299 -95.3576 233° Southwest 219 252 2,000 1,412 Climbing FlightAware ADS-B
Mon 11:02:53 AM 29.9261 -95.3645 238° Southwest 228 262 2,200 1,909 Climbing FlightAware ADS-B
Mon 11:03:08 AM 29.9175 -95.3807 239° Southwest 232 267 2,700 2,270 Climbing FlightAware ADS-B
Mon 11:03:30 AM 29.9050 -95.4055 240° Southwest 240 276 3,600 2,684 Climbing FlightAware ADS-B
Mon 11:03:46 AM 29.8961 -95.4224 239° Southwest 236 272 4,400 3,429 Climbing FlightAware ADS-B
Mon 11:03:51 AM 29.8934 -95.4281 241° Southwest 234 269 4,800 3,818 Climbing FlightAware ADS-B
Mon 11:03:57 AM 29.8908 -95.4349 246° West 233 268 5,100 3,429 Climbing FlightAware ADS-B
Mon 11:03:58 AM 29.8903 -95.4360 242° Southwest 234 269 5,200 2,000 Climbing FlightAware ADS-B
Mon 11:04:03 AM 29.8888 -95.4419 254° West 241 277 5,300 1,333 Climbing FlightAware ADS-B
Mon 11:04:07 AM 29.8881 -95.4464 260° West 247 284 5,400 1,800 Climbing FlightAware ADS-B
Mon 11:04:13 AM 29.8876 -95.4551 266° West 255 293 5,600 1,636 Climbing FlightAware ADS-B
Mon 11:04:18 AM 29.8876 -95.4621 270° West 263 303 5,700 1,000 Climbing FlightAware ADS-B
Mon 11:04:19 AM 29.8878 -95.4635 279° West 263 303 5,700 2,000 Level FlightAware ADS-B
Mon 11:04:24 AM 29.8884 -95.4700 276° West 268 308 5,900 2,667 Climbing FlightAware ADS-B
Mon 11:04:28 AM 29.8894 -95.4759 281° West 270 311 6,100 3,273 Climbing FlightAware ADS-B
Mon 11:04:35 AM 29.8920 -95.4856 287° West 274 315 6,500 3,500 Climbing FlightAware ADS-B
Mon 11:04:40 AM 29.8943 -95.4930 290° West 273 314 6,800 3,000 Climbing FlightAware ADS-B
Mon 11:04:47 AM 29.8973 -95.5020 291° West 271 312 7,100 2,250 Climbing FlightAware ADS-B
Mon 11:04:48 AM 29.8978 -95.5034 292° West 272 313 7,100 1,500 Level FlightAware ADS-B
Mon 11:05:03 AM 29.9040 -95.5238 289° West 283 326 7,500 1,875 Climbing FlightAware ADS-B
Mon 11:05:04 AM 29.9048 -95.5263 290° West 283 326 7,600 2,308 Climbing FlightAware ADS-B
Mon 11:05:16 AM 29.9100 -95.5429 290° West 286 329 8,000 2,471 Climbing FlightAware ADS-B
Mon 11:05:21 AM 29.9122 -95.5499 290° West 285 328 8,300 3,200 Climbing FlightAware ADS-B
Mon 11:05:31 AM 29.9168 -95.5649 289° West 285 328 8,800 2,471 Climbing FlightAware ADS-B
Mon 11:05:38 AM 29.9199 -95.5747 290° West 285 328 9,000 2,250 Climbing FlightAware ADS-B
Mon 11:05:47 AM 29.9237 -95.5875 289° West 287 330 9,400 2,471 Climbing FlightAware ADS-B
Mon 11:05:55 AM 29.9272 -95.5989 290° West 288 331 9,700 2,250 Climbing FlightAware ADS-B
Mon 11:06:03 AM 29.9303 -95.6102 288° West 289 333 10,000 2,100 Climbing FlightAware ADS-B
Mon 11:06:15 AM 29.9358 -95.6284 289° West 293 337 10,400 1,826 Climbing FlightAware ADS-B
Mon 11:06:26 AM 29.9407 -95.6444 289° West 303 349 10,700 1,161 Climbing FlightAware ADS-B
Mon 11:06:46 AM 29.9507 -95.6761 290° West 321 369 11,000 968 Climbing FlightAware ADS-B
Mon 11:06:57 AM 29.9567 -95.6947 290° West 334 384 11,200 1,200 Climbing FlightAware ADS-B
Mon 11:07:21 AM 29.9695 -95.7354 290° West 350 403 11,700 1,161 Climbing FlightAware ADS-B
Mon 11:07:28 AM 29.9735 -95.7484 290° West 363 418 11,800 1,200 Climbing FlightAware ADS-B
Mon 11:07:56 AM 29.9899 -95.8010 290° West 387 445 12,400 1,200 Climbing FlightAware ADS-B
Mon 11:07:58 AM 29.9913 -95.8056 289° West 389 448 12,400 1,875 Level FlightAware ADS-B
Mon 11:08:28 AM 30.0098 -95.8654 290° West 400 460 13,400 2,200 Climbing FlightAware ADS-B
Mon 11:08:58 AM 30.0287 -95.9267 290° West 406 467 14,600 2,500 Climbing FlightAware ADS-B
Mon 11:09:04 AM 30.0324 -95.9391 289° West 407 468 14,900 2,323 Climbing FlightAware ADS-B
Mon 11:09:29 AM 30.0477 -95.9888 290° West 413 475 15,800 2,182 Climbing FlightAware ADS-B
Mon 11:09:48 AM 30.0599 -96.0288 289° West 416 479 16,500 2,143 Climbing FlightAware ADS-B
Mon 11:09:57 AM 30.0652 -96.0484 287° West 419 482 16,800 2,154 Climbing FlightAware ADS-B
Mon 11:10:27 AM 30.0784 -96.1142 283° West 423 487 17,900 2,250 Climbing FlightAware ADS-B
Mon 11:10:29 AM 30.0789 -96.1174 280° West 424 488 18,000 2,200 Climbing FlightAware ADS-B
Mon 11:10:57 AM 30.0890 -96.1812 280° West 428 493 19,000 2,200 Climbing FlightAware ADS-B
Mon 11:10:59 AM 30.0897 -96.1865 279° West 428 493 19,100 2,129 Climbing FlightAware ADS-B
Mon 11:11:28 AM 30.0993 -96.2499 280° West 430 495 20,100 2,286 Climbing FlightAware ADS-B
Mon 11:11:41 AM 30.1041 -96.2812 280° West 428 493 20,700 2,200 Climbing FlightAware ADS-B
Mon 11:11:58 AM 30.1096 -96.3176 280° West 431 496 21,200 1,935 Climbing FlightAware ADS-B
Mon 11:12:12 AM 30.1147 -96.3508 280° West 432 497 21,700 2,000 Climbing FlightAware ADS-B
Mon 11:12:28 AM 30.1201 -96.3878 280° West 435 501 22,200 1,737 Climbing FlightAware ADS-B
Mon 11:12:50 AM 30.1279 -96.4376 280° West 437 503 22,800 1,742 Climbing FlightAware ADS-B
Mon 11:12:59 AM 30.1309 -96.4584 279° West 439 505 23,100 1,818 Climbing FlightAware ADS-B
Mon 11:13:23 AM 30.1392 -96.5128 280° West 442 509 23,800 1,600 Climbing FlightAware ADS-B
Mon 11:13:29 AM 30.1415 -96.5282 280° West 443 510 23,900 1,459 Climbing FlightAware ADS-B
Mon 11:14:00 AM 30.1524 -96.6004 280° West 449 517 24,700 1,636 Climbing FlightAware ADS-B
Mon 11:14:02 AM 30.1531 -96.6044 281° West 446 513 24,800 1,400 Climbing FlightAware ADS-B
Mon 11:14:30 AM 30.1632 -96.6722 280° West 455 524 25,400 1,273 Climbing FlightAware ADS-B
Mon 11:14:35 AM 30.1649 -96.6830 280° West 455 524 25,500 1,548 Climbing FlightAware ADS-B
Mon 11:15:01 AM 30.1740 -96.7447 280° West 456 525 26,200 1,787 Climbing FlightAware ADS-B
Mon 11:15:22 AM 30.1816 -96.7952 280° West 456 525 26,900 2,000 Climbing FlightAware ADS-B
Mon 11:15:31 AM 30.1850 -96.8174 280° West 453 521 27,200 2,000 Climbing FlightAware ADS-B
Mon 11:15:52 AM 30.1922 -96.8667 280° West 453 521 27,900 1,935 Climbing FlightAware ADS-B
Mon 11:16:02 AM 30.1957 -96.8904 280° West 450 518 28,200 1,600 Climbing FlightAware ADS-B
Mon 11:16:22 AM 30.2028 -96.9388 280° West 450 518 28,700 1,600 Climbing FlightAware ADS-B
Mon 11:16:32 AM 30.2063 -96.9622 280° West 450 518 29,000 1,610 Climbing FlightAware ADS-B
Mon 11:17:03 AM 30.2170 -97.0342 280° West 448 516 29,800 984 Climbing FlightAware ADS-B
Mon 11:17:33 AM 30.2276 -97.1059 280° West 450 518 30,000 324 Climbing FlightAware ADS-B
Mon 11:17:40 AM 30.2301 -97.1238 279° West 450 518 30,000  Level FlightAware ADS-B
Mon 11:18:03 AM 30.2380 -97.1778 280° West 450 518 30,000  Level FlightAware ADS-B
Mon 11:18:33 AM 30.2482 -97.2488 279° West 448 516 30,000  Level FlightAware ADS-B
Mon 11:19:04 AM 30.2588 -97.3206 280° West 445 512 30,000  Level FlightAware ADS-B
Mon 11:19:18 AM 30.2634 -97.3538 279° West 444 511 30,000  Level FlightAware ADS-B
Mon 11:19:34 AM 30.2688 -97.3907 280° West 443 510 30,000  Level FlightAware ADS-B
Mon 11:19:53 AM 30.2751 -97.4343 280° West 442 509 30,000  Level FlightAware ADS-B
Mon 11:20:05 AM 30.2792 -97.4633 279° West 440 506 30,000  Level FlightAware ADS-B
Mon 11:20:46 AM 30.2928 -97.5576 280° West 438 504 30,000  Level FlightAware ADS-B
Mon 11:21:12 AM 30.3018 -97.6190 280° West 437 503 30,000  Level FlightAware ADS-B
Mon 11:21:14 AM 30.2863 -97.5117 99° East 441 507 30,000  Level FlightAware ADS-B
Mon 11:21:42 AM 30.3141 -97.6867 280° West 438 504 30,000  Level FlightAware ADS-B
Mon 11:21:44 AM 30.3150 -97.6909 284° West 438 504 30,000  Level FlightAware ADS-B
Mon 11:22:03 AM 30.3238 -97.7338 283° West 439 505 30,000  Level FlightAware ADS-B
Mon 11:22:30 AM 30.3376 -97.7968 284° West 439 505 30,000 245 Level FlightAware ADS-B
Mon 11:22:52 AM 30.3488 -97.8452 285° West 442 509 30,200 774 Climbing FlightAware ADS-B
Mon 11:23:01 AM 30.3535 -97.8657 285° West 442 509 30,400 1,273 Climbing FlightAware ADS-B
Mon 11:23:25 AM 30.3660 -97.9201 285° West 442 509 30,900 111 Climbing FlightAware ADS-B
Mon 11:23:55 AM 30.3567 -97.8796 105° East 442 509 30,500 1,395 Descending FlightAware ADS-B
Mon 11:24:08 AM 30.3888 -98.0193 285° West 442 509 31,900 3,000 Climbing FlightAware ADS-B
Mon 11:24:25 AM 30.3977 -98.0585 285° West 439 505 32,000 125 Climbing FlightAware ADS-B
Mon 11:24:56 AM 30.4131 -98.1270 285° West 435 501 32,000  Level FlightAware ADS-B
Mon 11:25:30 AM 30.4302 -98.2037 285° West 432 497 32,000  Level FlightAware ADS-B
Mon 11:26:00 AM 30.4452 -98.2712 284° West 432 497 32,000  Level FlightAware ADS-B
Mon 11:26:14 AM 30.4525 -98.3037 285° West 433 498 32,000  Level FlightAware ADS-B
Mon 11:27:03 AM 30.4760 -98.4110 284° West 435 501 32,000  Level FlightAware ADS-B
Mon 11:27:43 AM 30.4950 -98.4980 284° West 436 502 32,000  Level FlightAware ADS-B
Mon 11:28:28 AM 30.5180 -98.6020 284° West 437 503 32,000  Level FlightAware ADS-B
Mon 11:29:08 AM 30.5380 -98.6920 284° West 437 503 32,000  Level FlightAware ADS-B
Mon 11:29:48 AM 30.5580 -98.7830 284° West 437 503 32,000  Level FlightAware ADS-B
Mon 11:30:33 AM 30.5800 -98.8830 284° West 437 503 32,000  Level FlightAware ADS-B
Mon 11:31:13 AM 30.6000 -98.9770 284° West 436 502 32,000  Level FlightAware ADS-B
Mon 11:31:58 AM 30.6220 -99.0780 284° West 435 501 32,000  Level FlightAware ADS-B
Mon 11:32:38 AM 30.6410 -99.1680 284° West 436 502 32,000  Level FlightAware ADS-B
Mon 11:33:18 AM 30.6600 -99.2580 284° West 435 501 32,000  Level FlightAware ADS-B
Mon 11:34:03 AM 30.6820 -99.3580 284° West 434 499 32,000  Level FlightAware ADS-B
Mon 11:34:43 AM 30.7020 -99.4520 284° West 433 498 32,000  Level FlightAware ADS-B
Mon 11:35:28 AM 30.7230 -99.5520 284° West 432 497 32,000  Level FlightAware ADS-B
Mon 11:36:08 AM 30.7420 -99.6420 284° West 431 496 32,000  Level FlightAware ADS-B
Mon 11:36:48 AM 30.7610 -99.7300 284° West 430 495 32,000  Level FlightAware ADS-B
Mon 11:37:33 AM 30.7830 -99.8350 284° West 428 493 32,000  Level FlightAware ADS-B
Mon 11:38:13 AM 30.8010 -99.9240 283° West 428 493 32,000  Level FlightAware ADS-B
Mon 11:38:53 AM 30.8200 -100.0130 284° West 428 493 32,000  Level FlightAware ADS-B
Mon 11:39:38 AM 30.8400 -100.1110 283° West 428 493 32,000  Level FlightAware ADS-B
Mon 11:40:18 AM 30.8590 -100.2020 284° West 429 494 32,000  Level FlightAware ADS-B
Mon 11:40:58 AM 30.8770 -100.2910 283° West 431 496 32,000  Level FlightAware ADS-B
Mon 11:41:43 AM 30.8980 -100.3910 284° West 431 496 32,000  Level FlightAware ADS-B
Mon 11:42:23 AM 30.9170 -100.4860 283° West 432 497 32,000  Level FlightAware ADS-B
Mon 11:43:08 AM 30.9370 -100.5840 283° West 432 497 32,000  Level FlightAware ADS-B
Mon 11:43:48 AM 30.9560 -100.6770 283° West 432 497 32,000  Level FlightAware ADS-B
Mon 11:44:28 AM 30.9740 -100.7660 283° West 433 498 32,000  Level FlightAware ADS-B
Mon 11:45:13 AM 30.9950 -100.8690 283° West 433 498 32,000  Level FlightAware ADS-B
Mon 11:45:53 AM 31.0140 -100.9620 283° West 434 499 32,000  Level FlightAware ADS-B
Mon 11:46:38 AM 31.0330 -101.0610 283° West 434 499 32,000  Level FlightAware ADS-B
Mon 11:47:18 AM 31.0510 -101.1510 283° West 433 498 32,000  Level FlightAware ADS-B
Mon 11:47:58 AM 31.0700 -101.2430 284° West 434 499 32,000  Level FlightAware ADS-B
Mon 11:48:38 AM 31.0880 -101.3350 283° West 433 498 32,000  Level FlightAware ADS-B
Mon 11:49:28 AM 31.1100 -101.4490 283° West 434 499 32,000  Level FlightAware ADS-B
Mon 11:50:08 AM 31.1280 -101.5410 283° West 435 501 32,000  Level FlightAware ADS-B
Mon 11:50:53 AM 31.1490 -101.6450 283° West 435 501 32,000  Level FlightAware ADS-B
Mon 11:51:33 AM 31.1650 -101.7300 282° West 435 501 32,000  Level FlightAware ADS-B
Mon 11:52:13 AM 31.1830 -101.8260 282° West 435 501 32,000  Level FlightAware ADS-B
Mon 11:52:53 AM 31.2010 -101.9170 283° West 435 501 32,000  Level FlightAware ADS-B
Mon 11:53:33 AM 31.2180 -102.0050 283° West 434 499 32,000  Level FlightAware ADS-B
Mon 11:54:23 AM 31.2400 -102.1220 282° West 432 497 32,000  Level FlightAware ADS-B
Mon 11:54:58 AM 31.2560 -102.2050 283° West 431 496 32,000  Level FlightAware ADS-B
Mon 11:55:43 AM 31.2750 -102.3040 283° West 431 496 32,000  Level FlightAware ADS-B
Mon 11:56:33 AM 31.2940 -102.4090 282° West 429 494 32,000  Level FlightAware ADS-B
Mon 11:57:23 AM 31.3120 -102.5060 282° West 429 494 32,000  Level FlightAware ADS-B
Mon 11:58:03 AM 31.3260 -102.5830 282° West 429 494 32,000  Level FlightAware ADS-B
Mon 11:58:43 AM 31.3400 -102.6600 282° West 429 494 32,000  Level FlightAware ADS-B
Mon 11:59:23 AM 31.3540 -102.7370 282° West 429 494 32,000  Level FlightAware ADS-B
Mon 12:00:13 PM 31.3710 -102.8340 282° West 429 494 32,000  Level FlightAware ADS-B
Mon 12:00:53 PM 31.3850 -102.9110 282° West 429 494 32,000  Level FlightAware ADS-B
Mon 12:01:33 PM 31.3990 -102.9890 282° West 429 494 32,000  Level FlightAware ADS-B
Mon 12:02:13 PM 31.4130 -103.0660 282° West 429 494 32,000  Level FlightAware ADS-B
Mon 12:02:53 PM 31.4270 -103.1430 282° West 429 494 32,000  Level FlightAware ADS-B
Mon 12:03:33 PM 31.4410 -103.2210 282° West 429 494 32,000  Level FlightAware ADS-B
Mon 12:04:23 PM 31.4590 -103.3170 282° West 429 494 32,000  Level FlightAware ADS-B
Mon 12:05:03 PM 31.4730 -103.3950 282° West 429 494 32,000  Level FlightAware ADS-B
Mon 12:05:43 PM 31.4870 -103.4720 282° West 429 494 32,000  Level FlightAware ADS-B
Mon 12:06:45 PM 31.5400 -103.7806 282° West 432 497 32,000  Level Albuquerque Center
Mon 12:07:47 PM 31.5644 -103.9167 282° West 429 494 32,000 -49 Level Albuquerque Center
Mon 12:08:48 PM 31.5881 -104.0533 281° West 430 495 31,900  Descending Albuquerque Center
Mon 12:09:50 PM 31.6161 -104.2153 282° West 426 490 32,000 48 Climbing Albuquerque Center
Mon 12:10:52 PM 31.6408 -104.3514 282° West 427 491 32,000  Level Albuquerque Center
Mon 12:11:54 PM 31.6639 -104.4886 281° West 429 494 32,000  Level Albuquerque Center
Mon 12:12:56 PM 31.6869 -104.6250 281° West 429 494 32,000 -48 Level Albuquerque Center
Mon 12:13:58 PM 31.7100 -104.7617 281° West 429 494 31,900 -48 Descending Albuquerque Center
Mon 12:15:00 PM 31.7367 -104.9253 281° West 429 494 31,900 48 Level Albuquerque Center
Mon 12:16:02 PM 31.7583 -105.0606 281° West 428 493 32,000 48 Climbing Albuquerque Center
Mon 12:17:04 PM 31.7806 -105.1919 281° West 421 484 32,000  Level Albuquerque Center
Mon 12:18:06 PM 31.8025 -105.3269 281° West 422 486 32,000  Level Albuquerque Center
Mon 12:19:07 PM 31.8236 -105.4608 281° West 419 482 32,000 -49 Level Albuquerque Center
Mon 12:20:09 PM 31.8456 -105.5953 281° West 419 482 31,900  Descending Albuquerque Center
Mon 12:21:11 PM 31.8714 -105.7544 281° West 416 479 32,000 15 Climbing Albuquerque Center
Mon 12:26:48 PM 32.0130 -106.5000 281° West 414 476 32,000  Level FlightAware ADS-B
Mon 12:27:38 PM 32.0390 -106.6030 287° West 413 475 32,000  Level FlightAware ADS-B
Mon 12:28:13 PM 32.0590 -106.6790 287° West 411 473 32,000  Level FlightAware ADS-B
Mon 12:29:08 PM 32.0840 -106.7820 286° West 411 473 32,000  Level FlightAware ADS-B
Mon 12:29:48 PM 32.1020 -106.8560 286° West 411 473 32,000  Level FlightAware ADS-B
Mon 12:30:28 PM 32.1190 -106.9290 285° West 411 473 32,000  Level FlightAware ADS-B
Mon 12:31:08 PM 32.1370 -107.0020 286° West 411 473 32,000  Level FlightAware ADS-B
Mon 12:31:48 PM 32.1550 -107.0760 286° West 411 473 32,000  Level FlightAware ADS-B
Mon 12:32:38 PM 32.1770 -107.1670 286° West 411 473 32,000  Level FlightAware ADS-B
Mon 12:33:18 PM 32.1950 -107.2410 286° West 411 473 32,000  Level FlightAware ADS-B
Mon 12:33:58 PM 32.2130 -107.3140 286° West 411 473 32,000  Level FlightAware ADS-B
Mon 12:34:38 PM 32.2310 -107.3880 286° West 411 473 32,000  Level FlightAware ADS-B
Mon 12:35:18 PM 32.2490 -107.4610 286° West 411 473 32,000  Level FlightAware ADS-B
Mon 12:36:08 PM 32.2710 -107.5530 286° West 411 473 32,000  Level FlightAware ADS-B
Mon 12:36:48 PM 32.2890 -107.6270 286° West 411 473 32,000  Level FlightAware ADS-B
Mon 12:37:28 PM 32.3060 -107.7000 285° West 411 473 32,000  Level FlightAware ADS-B
Mon 12:38:08 PM 32.3240 -107.7740 286° West 411 473 32,000  Level FlightAware ADS-B
Mon 12:38:53 PM 32.4030 -108.0770 287° West 32,000  Level FlightAware ADS-B
Mon 12:39:53 PM 32.4360 -108.2140 286° West 32,000  Level FlightAware ADS-B
Mon 12:40:48 PM 32.4650 -108.3390 285° West 425 489 32,000  Level FlightAware ADS-B
Mon 12:41:23 PM 32.4810 -108.4080 285° West 425 489 32,000  Level FlightAware ADS-B
Mon 12:42:03 PM 32.4980 -108.4840 285° West 425 489 32,000  Level FlightAware ADS-B
Mon 12:42:53 PM 32.5320 -108.6210 286° West 421 484 32,000  Level FlightAware ADS-B
Mon 12:43:33 PM 32.5520 -108.7090 285° West 420 483 32,000  Level FlightAware ADS-B
Mon 12:44:18 PM 32.5770 -108.8130 286° West 427 491 32,000  Level FlightAware ADS-B
Mon 12:44:58 PM 32.5980 -108.9030 286° West 428 493 32,000  Level FlightAware ADS-B
Mon 12:45:38 PM 32.6180 -108.9930 285° West 419 482 32,000  Level FlightAware ADS-B
Mon 12:46:23 PM 32.6410 -109.0900 286° West 415 478 32,000  Level FlightAware ADS-B
Mon 12:47:03 PM 32.6610 -109.1800 285° West 416 479 32,000  Level FlightAware ADS-B
Mon 12:47:48 PM 32.6850 -109.2810 286° West 419 482 32,000  Level FlightAware ADS-B
Mon 12:48:28 PM 32.7050 -109.3690 285° West 421 484 32,000  Level FlightAware ADS-B
Mon 12:49:13 PM 32.7270 -109.4680 285° West 420 483 32,000  Level FlightAware ADS-B
Mon 12:49:53 PM 32.7470 -109.5550 285° West 415 478 32,000  Level FlightAware ADS-B
Mon 12:50:33 PM 32.7670 -109.6440 285° West 413 475 32,000  Level FlightAware ADS-B
Mon 12:51:18 PM 32.7900 -109.7460 285° West 415 478 32,000  Level FlightAware ADS-B
Mon 12:51:43 PM 32.8020 -109.7970 286° West 411 473 32,000  Level FlightAware ADS-B
Mon 12:52:28 PM 32.8240 -109.8970 285° West 407 468 32,000  Level FlightAware ADS-B
Mon 12:53:08 PM 32.8430 -109.9820 285° West 404 465 32,000  Level FlightAware ADS-B
Mon 12:53:53 PM 32.8640 -110.0780 285° West 406 467 32,000  Level FlightAware ADS-B
Mon 12:54:33 PM 32.8840 -110.1650 285° West 408 470 32,000  Level FlightAware ADS-B
Mon 12:55:13 PM 32.9030 -110.2510 285° West 407 468 32,000  Level FlightAware ADS-B
Mon 12:55:58 PM 32.9250 -110.3510 285° West 400 460 32,000  Level FlightAware ADS-B
Mon 12:56:38 PM 32.9430 -110.4310 285° West 397 457 32,000  Level FlightAware ADS-B
Mon 12:57:18 PM 32.9620 -110.5190 284° West 397 457 32,000  Level FlightAware ADS-B
Mon 12:58:03 PM 32.9820 -110.6100 285° West 392 451 32,000  Level FlightAware ADS-B
Mon 12:58:43 PM 33.0000 -110.6930 285° West 386 444 32,000  Level FlightAware ADS-B
Mon 12:59:28 PM 33.0210 -110.7890 285° West 385 443 32,000  Level FlightAware ADS-B
Mon 01:00:08 PM 33.0390 -110.8710 285° West 387 445 32,000  Level FlightAware ADS-B
Mon 01:00:53 PM 33.0590 -110.9610 285° West 390 449 32,000  Level FlightAware ADS-B
Mon 01:01:33 PM 33.0770 -111.0450 284° West 392 451 32,000  Level FlightAware ADS-B
Mon 01:02:08 PM 33.0930 -111.1200 284° West 394 453 32,000  Level FlightAware ADS-B
Mon 01:02:58 PM 33.1160 -111.2260 285° West 395 455 32,000  Level FlightAware ADS-B
Mon 01:03:38 PM 33.1330 -111.3090 284° West 394 453 32,000  Level FlightAware ADS-B
Mon 01:04:23 PM 33.1530 -111.4020 284° West 393 452 32,000  Level FlightAware ADS-B
Mon 01:05:03 PM 33.1710 -111.4870 284° West 392 451 32,000  Level FlightAware ADS-B
Mon 01:05:43 PM 33.1810 -111.5710 278° West 389 448 32,000  Level FlightAware ADS-B
Mon 01:06:23 PM 33.1880 -111.6560 276° West 389 448 32,000  Level FlightAware ADS-B
Mon 01:07:08 PM 33.1950 -111.7520 275° West 386 444 32,000  Level FlightAware ADS-B
Mon 01:07:48 PM 33.2010 -111.8390 275° West 381 438 32,000  Level FlightAware ADS-B
Mon 01:08:33 PM 33.2070 -111.9270 275° West 378 435 32,000  Level FlightAware ADS-B
Mon 01:09:13 PM 33.2120 -112.0090 274° West 379 436 32,000  Level FlightAware ADS-B
Mon 01:09:58 PM 33.2190 -112.1090 275° West 380 437 32,000  Level FlightAware ADS-B
Mon 01:10:33 PM 33.2240 -112.1770 275° West 381 438 32,000  Level FlightAware ADS-B
Mon 01:11:23 PM 33.2310 -112.2850 274° West 381 438 32,000  Level FlightAware ADS-B
Mon 01:12:03 PM 33.2360 -112.3640 274° West 380 437 32,000  Level FlightAware ADS-B
Mon 01:12:43 PM 33.2410 -112.4490 274° West 377 434 32,000  Level FlightAware ADS-B
Mon 01:13:28 PM 33.2480 -112.5480 275° West 379 436 32,000  Level FlightAware ADS-B
Mon 01:14:08 PM 33.2530 -112.6310 274° West 380 437 32,000  Level FlightAware ADS-B
Mon 01:14:53 PM 33.2590 -112.7230 274° West 376 433 32,000  Level FlightAware ADS-B
Mon 01:15:33 PM 33.2640 -112.8060 274° West 371 427 32,000  Level FlightAware ADS-B
Mon 01:16:13 PM 33.2690 -112.8830 274° West 372 428 32,000  Level FlightAware ADS-B
Mon 01:16:58 PM 33.2750 -112.9800 274° West 369 425 32,000  Level FlightAware ADS-B
Mon 01:17:38 PM 33.2800 -113.0580 274° West 368 423 32,000  Level FlightAware ADS-B
Mon 01:18:13 PM 33.2840 -113.1230 274° West 368 423 32,000  Level FlightAware ADS-B
Mon 01:19:03 PM 33.2890 -113.2100 274° West 368 423 32,000  Level FlightAware ADS-B
Mon 01:19:43 PM 33.2950 -113.3100 274° West 371 427 32,000  Level FlightAware ADS-B
Mon 01:20:23 PM 33.3000 -113.3860 275° West 371 427 32,000  Level FlightAware ADS-B
Mon 01:21:08 PM 33.3050 -113.4780 274° West 372 428 32,000  Level FlightAware ADS-B
Mon 01:21:43 PM 33.3100 -113.5570 274° West 374 430 32,000 -50 Level FlightAware ADS-B
Mon 01:22:28 PM 33.3150 -113.6410 274° West 32,000 -71 Level FlightAware ADS-B
Mon 01:23:07 PM 33.3192 -113.7136 274° West 378 435 31,900  Descending Albuquerque Center
Mon 01:24:09 PM 33.3256 -113.8372 274° West 376 433 32,000 48 Climbing Albuquerque Center
Mon 01:25:11 PM 33.3331 -113.9600 274° West 373 429 32,000 -48 Level Albuquerque Center
Mon 01:26:13 PM 33.3389 -114.0833 273° West 373 429 31,900  Descending Albuquerque Center
Mon 01:27:15 PM 33.3467 -114.2314 274° West 373 429 32,000  Climbing Albuquerque Center
Mon 01:28:17 PM 33.3525 -114.3539 273° West 371 427 31,900  Descending Albuquerque Center
Mon 01:29:19 PM 33.3592 -114.4764 274° West 370 426 32,000 32 Climbing Albuquerque Center
Mon 01:31:27 PM 33.3692 -114.7403 273° West 364 419 32,000 -32 Level Los Angeles Center
Mon 01:32:29 PM 33.3753 -114.8600 274° West 363 418 31,900  Descending Los Angeles Center
Mon 01:38:02 PM 33.4050 -115.5350 274° West 360 414 32,000 16 Climbing FlightAware ADS-B
Mon 01:38:42 PM 33.4090 -115.6220 273° West 361 415 32,000  Level FlightAware ADS-B
Mon 01:39:26 PM 33.4120 -115.7080 272° West 361 415 32,000  Level FlightAware ADS-B
Mon 01:40:06 PM 33.4140 -115.7840 272° West 360 414 32,000  Level FlightAware ADS-B
Mon 01:40:52 PM 33.4180 -115.8760 273° West 354 407 32,000  Level FlightAware ADS-B
Mon 01:41:33 PM 33.4200 -115.9570 272° West 355 409 32,000  Level FlightAware ADS-B
Mon 01:42:03 PM 33.4220 -116.0150 272° West 361 415 32,000  Level FlightAware ADS-B
Mon 01:42:43 PM 33.4250 -116.0930 273° West 370 426 32,000  Level FlightAware ADS-B
Mon 01:43:23 PM 33.4270 -116.1740 272° West 368 423 32,000  Level FlightAware ADS-B
Mon 01:44:08 PM 33.4300 -116.2680 272° West 361 415 32,000  Level FlightAware ADS-B
Mon 01:44:48 PM 33.4330 -116.3500 273° West 358 412 32,000  Level FlightAware ADS-B
Mon 01:45:28 PM 33.4350 -116.4300 272° West 365 420 32,000  Level FlightAware ADS-B
Mon 01:46:13 PM 33.4380 -116.5150 272° West 368 423 32,000  Level FlightAware ADS-B
Mon 01:46:53 PM 33.4400 -116.6010 272° West 369 425 32,000  Level FlightAware ADS-B
Mon 01:47:38 PM 33.4420 -116.6950 271° West 366 421 32,000  Level FlightAware ADS-B
Mon 01:48:18 PM 33.4440 -116.7670 272° West 361 415 32,000  Level FlightAware ADS-B
Mon 01:48:58 PM 33.4460 -116.8480 272° West 357 411 32,000  Level FlightAware ADS-B
Mon 01:49:43 PM 33.4490 -116.9420 272° West 353 406 32,000  Level FlightAware ADS-B
Mon 01:50:23 PM 33.4500 -117.0210 271° West 350 403 32,000  Level FlightAware ADS-B
Mon 01:51:03 PM 33.4520 -117.0950 272° West 348 400 32,000  Level FlightAware ADS-B
Mon 01:51:48 PM 33.4540 -117.1810 272° West 348 400 32,000  Level FlightAware ADS-B
Mon 01:52:28 PM 33.4560 -117.2580 272° West 352 405 32,000  Level FlightAware ADS-B
Mon 01:53:13 PM 33.4580 -117.3480 272° West 355 409 32,000  Level FlightAware ADS-B
Mon 01:53:53 PM 33.4590 -117.4270 271° West 359 413 32,000  Level FlightAware ADS-B
Mon 01:54:38 PM 33.4610 -117.5160 272° West 363 418 32,000  Level FlightAware ADS-B
Mon 01:55:18 PM 33.4620 -117.5950 271° West 371 427 32,000  Level FlightAware ADS-B
Mon 01:55:58 PM 33.4640 -117.6790 272° West 374 430 32,000  Level FlightAware ADS-B
Mon 01:56:43 PM 33.4650 -117.7690 271° West 377 434 32,000  Level FlightAware ADS-B
Mon 01:57:23 PM 33.4670 -117.8570 272° West 379 436 32,000  Level FlightAware ADS-B
Mon 01:58:03 PM 33.4680 -117.9420 271° West 378 435 32,000  Level FlightAware ADS-B
Mon 01:58:48 PM 33.4700 -118.0340 272° West 379 436 32,000  Level FlightAware ADS-B
Mon 01:59:18 PM 33.4710 -118.0960 271° West 379 436 32,000  Level FlightAware ADS-B
Mon 01:59:58 PM 33.4720 -118.1810 271° West 378 435 32,000  Level FlightAware ADS-B
Mon 02:00:38 PM 33.4730 -118.2630 271° West 376 433 32,000  Level FlightAware ADS-B
Mon 02:01:23 PM 33.4740 -118.3590 271° West 377 434 32,000  Level FlightAware ADS-B
Mon 02:02:03 PM 33.4750 -118.4430 271° West 378 435 32,000  Level FlightAware ADS-B
Mon 02:02:48 PM 33.4760 -118.5320 271° West 378 435 32,000  Level FlightAware ADS-B
Mon 02:03:18 PM 33.4770 -118.5970 271° West 379 436 32,000  Level FlightAware ADS-B
Mon 02:04:03 PM 33.4780 -118.6930 271° West 379 436 32,000  Level FlightAware ADS-B
Mon 02:04:43 PM 33.4780 -118.7780 270° West 382 440 32,000  Level FlightAware ADS-B
Mon 02:05:28 PM 33.4790 -118.8720 271° West 384 442 32,000  Level FlightAware ADS-B
Mon 02:06:08 PM 33.4800 -118.9500 271° West 386 444 32,000  Level FlightAware ADS-B
Mon 02:06:53 PM 33.4810 -119.0530 271° West 387 445 32,000  Level FlightAware ADS-B
Mon 02:07:33 PM 33.4820 -119.1400 271° West 389 448 32,000  Level FlightAware ADS-B
Mon 02:08:18 PM 33.4820 -119.2340 270° West 392 451 32,000  Level FlightAware ADS-B
Mon 02:08:48 PM 33.4830 -119.2920 271° West 392 451 32,000  Level FlightAware ADS-B
Mon 02:09:43 PM 33.4830 -119.4170 270° West 393 452 32,000  Level FlightAware ADS-B
Mon 02:10:18 PM 33.4840 -119.4950 271° West 394 453 32,000  Level FlightAware ADS-B
Mon 02:11:18 PM 33.4840 -119.6210 270° West 395 455 32,000  Level FlightAware ADS-B
Mon 02:11:53 PM 33.4850 -119.7000 271° West 395 455 32,000  Level FlightAware ADS-B
Mon 02:12:38 PM 33.4850 -119.7880 270° West 395 455 32,000  Level FlightAware ADS-B
Mon 02:13:18 PM 33.4850 -119.8620 270° West 395 455 32,000  Level FlightAware ADS-B
Mon 02:14:08 PM 33.4850 -119.9550 270° West 395 455 32,000  Level FlightAware ADS-B
Mon 02:14:48 PM 33.4850 -120.0300 270° West 395 455 32,000  Level FlightAware ADS-B
Mon 02:15:28 PM 33.4850 -120.1040 270° West 395 455 32,000  Level FlightAware ADS-B
Mon 02:16:08 PM 33.4850 -120.1790 270° West 395 455 32,000  Level FlightAware ADS-B
Mon 02:16:48 PM 33.4850 -120.2530 270° West 395 455 32,000 1,333 Level FlightAware ADS-B
Mon 02:17:38 PM 33.4860 -120.4240 270° West 378 435 34,000 1,333 Climbing FlightAware ADS-B
Mon 02:18:18 PM 33.4850 -120.4950 269° West 378 435 34,000  Level FlightAware ADS-B
Mon 02:18:58 PM 33.4840 -120.5660 269° West 378 435 34,000  Level FlightAware ADS-B
Mon 02:19:38 PM 33.4830 -120.6380 269° West 378 435 34,000  Level FlightAware ADS-B
Mon 02:20:23 PM 33.4870 -120.7770 272° West 390 449 34,000  Level FlightAware ADS-B
Mon 02:21:03 PM 33.4870 -120.8510 270° West 390 449 34,000  Level FlightAware ADS-B
Mon 02:21:43 PM 33.4870 -120.9240 270° West 390 449 34,000  Level FlightAware ADS-B
Mon 02:22:33 PM 33.4870 -121.0160 270° West 390 449 34,000  Level FlightAware ADS-B
Mon 02:23:13 PM 33.4870 -121.0900 270° West 390 449 34,000  Level FlightAware ADS-B
Mon 02:23:53 PM 33.4870 -121.1630 270° West 390 449 34,000  Level FlightAware ADS-B
Mon 02:24:33 PM 33.4870 -121.2370 270° West 390 449 34,000  Level FlightAware ADS-B
Mon 02:25:13 PM 33.4870 -121.3100 270° West 390 449 34,000  Level FlightAware ADS-B
Mon 02:26:03 PM 33.4870 -121.4020 270° West 390 449 34,000  Level FlightAware ADS-B
Mon 02:26:43 PM 33.4870 -121.4760 270° West 390 449 34,000  Level FlightAware ADS-B
Mon 02:27:23 PM 33.4870 -121.5490 270° West 390 449 34,000  Level FlightAware ADS-B
Mon 02:28:03 PM 33.4870 -121.6230 270° West 390 449 34,000  Level FlightAware ADS-B
Mon 02:28:43 PM 33.4870 -121.6970 270° West 390 449 34,000  Level FlightAware ADS-B
Mon 02:29:23 PM 33.4870 -121.7700 270° West 390 449 34,000 -58 Level FlightAware ADS-B
Mon 02:30:26 PM 33.4906 -122.1006 270° West 407 468 33,900 -48 Descending Los Angeles Center
Mon 02:31:28 PM 33.4881 -122.2358 269° West 409 471 33,900 48 Level Los Angeles Center
Mon 02:32:30 PM 33.4833 -122.3703 268° West 406 467 34,000 48 Climbing Los Angeles Center
Mon 02:33:32 PM 33.4808 -122.5075 269° West 409 471 34,000  Level Los Angeles Center
Mon 02:35:00 PM 33.4422 -122.7063 257° West  Level FlightAware Approximate
Mon 02:42:00 PM 33.2506 -123.6444 257° West  Level FlightAware Approximate
Mon 02:43:00 PM 33.2226 -123.7781 256° West  Level FlightAware Approximate
Mon 02:44:00 PM 33.1945 -123.9117 256° West  Level FlightAware Approximate
Mon 02:45:00 PM 33.1663 -124.0452 256° West  Level FlightAware Approximate
Mon 02:46:00 PM 33.1379 -124.1786 256° West  Level FlightAware Approximate
Mon 02:47:00 PM 33.1094 -124.3120 256° West  Level FlightAware Approximate
Mon 02:48:00 PM 33.0781 -124.4439 239° Southwest  Level FlightAware Approximate
Mon 02:48:31 PM 33.0667 -124.5167 255° West 432 497 34,000  Level Oakland Oceanic (ODAPS)
Mon 02:49:00 PM 33.0535 -124.5756 255° West  Level FlightAware Approximate
Mon 02:50:00 PM 33.0237 -124.7084 255° West  Level FlightAware Approximate
Mon 02:51:00 PM 32.9938 -124.8412 255° West  Level FlightAware Approximate
Mon 02:52:00 PM 32.9638 -124.9738 255° West  Level FlightAware Approximate
Mon 02:53:00 PM 32.9336 -125.1064 255° West  Level FlightAware Approximate
Mon 02:54:00 PM 32.8781 -125.3482 255° West 432 497 34,000  Level FlightAware Transoceanic
Mon 02:55:00 PM 32.8461 -125.4864 255° West 432 497 34,000  Level FlightAware Transoceanic
Mon 02:55:54 PM 32.8333 -125.5833 254° West 438 504 34,000  Level Oakland Oceanic (ODAPS)
Mon 02:56:00 PM 32.8140 -125.6246 254° West 432 497 34,000  Level FlightAware Transoceanic
Mon 02:57:00 PM 32.7818 -125.7626 254° West 432 497 34,000  Level FlightAware Transoceanic
Mon 02:58:00 PM 32.7494 -125.9006 254° West 432 497 34,000  Level FlightAware Transoceanic
Mon 02:59:00 PM 32.7168 -126.0384 254° West 432 497 34,000  Level FlightAware Transoceanic
Mon 03:00:00 PM 32.6841 -126.1761 254° West 432 497 34,000  Level FlightAware Transoceanic
Mon 03:01:00 PM 32.6512 -126.3138 254° West 432 497 34,000  Level FlightAware Transoceanic
Mon 03:02:00 PM 32.6353 -126.4155 254° West 438 504 34,000  Level FlightAware Transoceanic
Mon 03:03:00 PM 32.6018 -126.5538 254° West 438 504 34,000  Level FlightAware Transoceanic
Mon 03:04:00 PM 32.5681 -126.6920 254° West 438 504 34,000  Level FlightAware Transoceanic
Mon 03:05:00 PM 32.5342 -126.8301 254° West 438 504 34,000  Level FlightAware Transoceanic
Mon 03:06:00 PM 32.5003 -126.9681 254° West 438 504 34,000  Level FlightAware Transoceanic
Mon 03:07:00 PM 32.4661 -127.1061 254° West 438 504 34,000  Level FlightAware Transoceanic
Mon 03:08:00 PM 32.4318 -127.2439 254° West 438 504 34,000  Level FlightAware Transoceanic
Mon 03:09:00 PM 32.3974 -127.3816 253° West 438 504 34,000  Level FlightAware Transoceanic
Mon 03:09:46 PM 32.3667 -127.5167 253° West 445 512 34,000  Level Oakland Oceanic (ODAPS)
Mon 03:10:00 PM 32.3628 -127.5192 253° West 438 504 34,000  Level FlightAware Transoceanic
Mon 03:11:00 PM 32.3281 -127.6566 253° West 438 504 34,000  Level FlightAware Transoceanic
Mon 03:12:00 PM 32.2932 -127.7940 253° West 438 504 34,000  Level FlightAware Transoceanic
Mon 03:13:00 PM 32.2581 -127.9313 253° West 438 504 34,000  Level FlightAware Transoceanic
Mon 03:14:00 PM 32.2229 -128.0685 253° West 438 504 34,000  Level FlightAware Transoceanic
Mon 03:15:00 PM 32.1876 -128.2056 253° West 438 504 34,000  Level FlightAware Transoceanic
Mon 03:16:00 PM 32.1488 -128.3654 253° West 445 512 34,000  Level FlightAware Transoceanic
Mon 03:17:00 PM 32.1120 -128.5065 253° West 445 512 34,000  Level FlightAware Transoceanic
Mon 03:18:00 PM 32.0750 -128.6474 253° West 445 512 34,000  Level FlightAware Transoceanic
Mon 03:19:00 PM 32.0378 -128.7882 253° West 445 512 34,000  Level FlightAware Transoceanic
Mon 03:20:00 PM 32.0005 -128.9290 253° West 445 512 34,000  Level FlightAware Transoceanic
Mon 03:21:00 PM 31.9630 -129.0695 253° West 445 512 34,000  Level FlightAware Transoceanic
Mon 03:22:00 PM 31.9254 -129.2100 252° West 445 512 34,000  Level FlightAware Transoceanic
Mon 03:23:00 PM 31.8876 -129.3504 252° West 445 512 34,000  Level FlightAware Transoceanic
Mon 03:23:38 PM 31.8500 -129.4667 252° West 452 520 34,000  Level Oakland Oceanic (ODAPS)
Mon 03:24:00 PM 31.8497 -129.4907 252° West 445 512 34,000  Level FlightAware Transoceanic
Mon 03:25:00 PM 31.8116 -129.6308 252° West 445 512 34,000  Level FlightAware Transoceanic
Mon 03:26:00 PM 31.7733 -129.7708 252° West 445 512 34,000  Level FlightAware Transoceanic
Mon 03:27:00 PM 31.7349 -129.9107 252° West 445 512 34,000  Level FlightAware Transoceanic
Mon 03:28:00 PM 31.6964 -130.0505 252° West 445 512 34,000  Level FlightAware Transoceanic
Mon 03:29:00 PM 31.6192 -130.3134 252° West 452 520 34,000  Level FlightAware Transoceanic
Mon 03:30:00 PM 31.5801 -130.4541 252° West 452 520 34,000  Level FlightAware Transoceanic
Mon 03:31:00 PM 31.5410 -130.5947 252° West 452 520 34,000  Level FlightAware Transoceanic
Mon 03:32:00 PM 31.5016 -130.7352 252° West 452 520 34,000  Level FlightAware Transoceanic
Mon 03:33:00 PM 31.4622 -130.8755 252° West 452 520 34,000  Level FlightAware Transoceanic
Mon 03:34:00 PM 31.4225 -131.0157 252° West 452 520 34,000  Level FlightAware Transoceanic
Mon 03:35:00 PM 31.3827 -131.1559 252° West 452 520 34,000  Level FlightAware Transoceanic
Mon 03:36:00 PM 31.3428 -131.2959 251° West 452 520 34,000  Level FlightAware Transoceanic
Mon 03:37:00 PM 31.3027 -131.4357 251° West 452 520 34,000  Level FlightAware Transoceanic
Mon 03:37:30 PM 31.3000 -131.4333 252° West 457 526 34,000  Level Oakland Oceanic (ODAPS)
Mon 03:38:00 PM 31.2625 -131.5755 251° West 452 520 34,000  Level FlightAware Transoceanic
Mon 03:39:00 PM 31.2221 -131.7151 251° West 452 520 34,000  Level FlightAware Transoceanic
Mon 03:40:00 PM 31.1815 -131.8546 251° West 452 520 34,000  Level FlightAware Transoceanic
Mon 03:41:00 PM 31.1408 -131.9940 251° West 452 520 34,000  Level FlightAware Transoceanic
Mon 03:42:00 PM 31.1000 -132.1333 251° West 452 520 34,000  Level FlightAware Transoceanic
Mon 03:42:25 PM 31.1000 -132.1333 251° West 460 529 34,000  Level Oakland Oceanic (ODAPS)
Mon 03:43:00 PM 31.0585 -132.2743 251° West 457 526 34,000  Level FlightAware Transoceanic
Mon 03:44:00 PM 31.0169 -132.4152 251° West 457 526 34,000  Level FlightAware Transoceanic
Mon 03:45:00 PM 30.9751 -132.5559 251° West 457 526 34,000  Level FlightAware Transoceanic
Mon 03:46:00 PM 30.9332 -132.6965 251° West 457 526 34,000  Level FlightAware Transoceanic
Mon 03:47:00 PM 30.8911 -132.8370 251° West 457 526 34,000  Level FlightAware Transoceanic
Mon 03:48:00 PM 30.8489 -132.9774 251° West 460 529 34,000  Level FlightAware Transoceanic
Mon 03:49:00 PM 30.8065 -133.1176 251° West 460 529 34,000  Level FlightAware Transoceanic
Mon 03:50:00 PM 30.7640 -133.2577 251° West 460 529 34,000  Level FlightAware Transoceanic
Mon 03:51:00 PM 30.7213 -133.3977 250° West 460 529 34,000  Level FlightAware Transoceanic
Mon 03:51:22 PM 30.7333 -133.4000 250° West 459 528 34,000  Level Oakland Oceanic (ODAPS)
Mon 03:52:00 PM 30.6784 -133.5376 250° West 460 529 34,000  Level FlightAware Transoceanic
Mon 03:53:00 PM 30.6354 -133.6773 250° West 460 529 34,000  Level FlightAware Transoceanic
Mon 03:54:00 PM 30.5923 -133.8169 250° West 460 529 34,000  Level FlightAware Transoceanic
Mon 03:55:00 PM 30.5490 -133.9564 250° West 460 529 34,000  Level FlightAware Transoceanic
Mon 03:56:00 PM 30.5056 -134.0958 250° West 460 529 34,000  Level FlightAware Transoceanic
Mon 03:57:00 PM 30.4724 -134.2371 250° West 459 528 34,000  Level FlightAware Transoceanic
Mon 03:58:00 PM 30.4284 -134.3762 250° West 459 528 34,000  Level FlightAware Transoceanic
Mon 03:59:00 PM 30.3843 -134.5151 250° West 459 528 34,000  Level FlightAware Transoceanic
Mon 04:00:00 PM 30.3400 -134.6540 250° West 459 528 34,000  Level FlightAware Transoceanic
Mon 04:01:00 PM 30.2955 -134.7927 250° West 459 528 34,000  Level FlightAware Transoceanic
Mon 04:02:00 PM 30.2509 -134.9312 250° West 459 528 34,000  Level FlightAware Transoceanic
Mon 04:03:00 PM 30.2062 -135.0697 249° West 459 528 34,000  Level FlightAware Transoceanic
Mon 04:04:00 PM 30.1613 -135.2080 249° West 459 528 34,000  Level FlightAware Transoceanic
Mon 04:05:00 PM 30.1163 -135.3462 249° West 459 528 34,000  Level FlightAware Transoceanic
Mon 04:05:15 PM 30.1167 -135.3333 249° West 461 531 34,000  Level Oakland Oceanic (ODAPS)
Mon 04:06:00 PM 30.0711 -135.4843 249° West 459 528 34,000  Level FlightAware Transoceanic
Mon 04:07:00 PM 30.0258 -135.6222 249° West 459 528 34,000  Level FlightAware Transoceanic
Mon 04:08:00 PM 29.9803 -135.7601 249° West 459 528 34,000  Level FlightAware Transoceanic
Mon 04:09:00 PM 29.9347 -135.8977 249° West 459 528 34,000  Level FlightAware Transoceanic
Mon 04:10:00 PM 29.8890 -136.0353 249° West 459 528 34,000  Level FlightAware Transoceanic
Mon 04:11:00 PM 29.8435 -136.1625 249° West 461 531 34,000  Level FlightAware Transoceanic
Mon 04:12:00 PM 29.7974 -136.3002 249° West 461 531 34,000  Level FlightAware Transoceanic
Mon 04:13:00 PM 29.7512 -136.4378 249° West 461 531 34,000  Level FlightAware Transoceanic
Mon 04:14:00 PM 29.7049 -136.5753 249° West 461 531 34,000  Level FlightAware Transoceanic
Mon 04:15:00 PM 29.6585 -136.7127 249° West 461 531 34,000  Level FlightAware Transoceanic
Mon 04:16:00 PM 29.6119 -136.8499 249° West 461 531 34,000  Level FlightAware Transoceanic
Mon 04:17:00 PM 29.5651 -136.9870 249° West 461 531 34,000  Level FlightAware Transoceanic
Mon 04:18:00 PM 29.5182 -137.1240 248° West 461 531 34,000  Level FlightAware Transoceanic
Mon 04:19:00 PM 29.4712 -137.2609 248° West 461 531 34,000  Level FlightAware Transoceanic
Mon 04:19:18 PM 29.4833 -137.2500 248° West 460 529 34,000  Level Oakland Oceanic (ODAPS)
Mon 04:20:00 PM 29.4240 -137.3976 248° West 461 531 34,000  Level FlightAware Transoceanic
Mon 04:21:00 PM 29.3767 -137.5342 248° West 461 531 34,000  Level FlightAware Transoceanic
Mon 04:22:00 PM 29.3293 -137.6707 248° West 461 531 34,000  Level FlightAware Transoceanic
Mon 04:23:00 PM 29.2817 -137.8071 248° West 461 531 34,000  Level FlightAware Transoceanic
Mon 04:24:00 PM 29.2340 -137.9433 248° West 461 531 34,000  Level FlightAware Transoceanic
Mon 04:25:00 PM 29.1937 -138.0726 248° West 460 529 34,000  Level FlightAware Transoceanic
Mon 04:26:00 PM 29.1450 -138.2093 248° West 460 529 34,000  Level FlightAware Transoceanic
Mon 04:27:00 PM 29.0961 -138.3458 248° West 460 529 34,000  Level FlightAware Transoceanic
Mon 04:28:00 PM 29.0471 -138.4822 248° West 460 529 34,000  Level FlightAware Transoceanic
Mon 04:29:00 PM 28.9979 -138.6185 248° West 460 529 34,000  Level FlightAware Transoceanic
Mon 04:30:00 PM 28.9486 -138.7546 247° West 460 529 34,000  Level FlightAware Transoceanic
Mon 04:31:00 PM 28.8991 -138.8906 247° West 460 529 34,000  Level FlightAware Transoceanic
Mon 04:32:00 PM 28.8496 -139.0265 247° West 460 529 34,000  Level FlightAware Transoceanic
Mon 04:32:58 PM 28.8167 -139.1333 246° West 463 533 34,000  Level Oakland Oceanic (ODAPS)
Mon 04:33:00 PM 28.7998 -139.1622 247° West 460 529 34,000  Level FlightAware Transoceanic
Mon 04:34:00 PM 28.7500 -139.2979 247° West 460 529 34,000  Level FlightAware Transoceanic
Mon 04:35:00 PM 28.7000 -139.4333 247° West 460 529 34,000  Level FlightAware Transoceanic
Mon 04:35:11 PM 28.7000 -139.4333 247° West 464 534 34,000  Level Oakland Oceanic (ODAPS)
Mon 04:36:00 PM 28.6493 -139.5712 247° West 460 529 34,000  Level FlightAware Transoceanic
Mon 04:37:00 PM 28.5984 -139.7090 247° West 460 529 34,000  Level FlightAware Transoceanic
Mon 04:38:00 PM 28.5473 -139.8466 247° West 460 529 34,000  Level FlightAware Transoceanic
Mon 04:39:00 PM 28.4962 -139.9842 247° West 463 533 34,000  Level FlightAware Transoceanic
Mon 04:40:00 PM 28.4449 -140.1215 247° West 463 533 34,000  Level FlightAware Transoceanic
Mon 04:41:00 PM 28.3995 -140.2426 247° West 464 534 34,000  Level FlightAware Transoceanic
Mon 04:42:00 PM 28.3489 -140.3771 247° West 464 534 34,000  Level FlightAware Transoceanic
Mon 04:43:00 PM 28.2983 -140.5114 247° West 464 534 34,000  Level FlightAware Transoceanic
Mon 04:44:00 PM 28.2474 -140.6456 247° West 464 534 34,000  Level FlightAware Transoceanic
Mon 04:45:00 PM 28.1965 -140.7796 247° West 464 534 34,000  Level FlightAware Transoceanic
Mon 04:46:00 PM 28.1454 -140.9135 247° West 464 534 34,000  Level FlightAware Transoceanic
Mon 04:46:50 PM 28.1167 -141.0000 246° West 465 535 34,000  Level Oakland Oceanic (ODAPS)
Mon 04:47:00 PM 28.0942 -141.0473 247° West 464 534 34,000  Level FlightAware Transoceanic
Mon 04:48:00 PM 28.0429 -141.1810 246° West 464 534 34,000  Level FlightAware Transoceanic
Mon 04:49:00 PM 27.9914 -141.3145 246° West 464 534 34,000  Level FlightAware Transoceanic
Mon 04:50:00 PM 27.9398 -141.4479 246° West 464 534 34,000  Level FlightAware Transoceanic
Mon 04:51:00 PM 27.8881 -141.5812 246° West 464 534 34,000  Level FlightAware Transoceanic
Mon 04:52:00 PM 27.8362 -141.7144 246° West 464 534 34,000  Level FlightAware Transoceanic
Mon 04:53:00 PM 27.8035 -141.8076 246° West 465 535 34,000  Level FlightAware Transoceanic
Mon 04:54:00 PM 27.7509 -141.9418 246° West 465 535 34,000  Level FlightAware Transoceanic
Mon 04:55:00 PM 27.6981 -142.0758 246° West 465 535 34,000  Level FlightAware Transoceanic
Mon 04:56:00 PM 27.6452 -142.2097 246° West 465 535 34,000  Level FlightAware Transoceanic
Mon 04:57:00 PM 27.5921 -142.3434 246° West 465 535 34,000  Level FlightAware Transoceanic
Mon 04:58:00 PM 27.5390 -142.4771 246° West 465 535 34,000  Level FlightAware Transoceanic
Mon 04:59:00 PM 27.4857 -142.6106 246° West 465 535 34,000  Level FlightAware Transoceanic
Mon 05:00:00 PM 27.4322 -142.7440 246° West 465 535 34,000  Level FlightAware Transoceanic
Mon 05:00:54 PM 27.3833 -142.8667 246° West 470 541 34,000  Level Oakland Oceanic (ODAPS)
Mon 05:01:00 PM 27.3787 -142.8772 246° West 465 535 34,000  Level FlightAware Transoceanic
Mon 05:02:00 PM 27.3250 -143.0103 246° West 465 535 34,000  Level FlightAware Transoceanic
Mon 05:03:00 PM 27.2712 -143.1433 245° Southwest 465 535 34,000  Level FlightAware Transoceanic
Mon 05:04:00 PM 27.2173 -143.2762 245° Southwest 465 535 34,000  Level FlightAware Transoceanic
Mon 05:05:00 PM 27.1632 -143.4089 245° Southwest 465 535 34,000  Level FlightAware Transoceanic
Mon 05:06:00 PM 27.1091 -143.5415 245° Southwest 465 535 34,000  Level FlightAware Transoceanic
Mon 05:07:00 PM 27.0037 -143.7988 245° Southwest 470 541 34,000  Level FlightAware Transoceanic
Mon 05:08:00 PM 26.9490 -143.9314 245° Southwest 470 541 34,000  Level FlightAware Transoceanic
Mon 05:09:00 PM 26.8942 -144.0639 245° Southwest 470 541 34,000  Level FlightAware Transoceanic
Mon 05:10:00 PM 26.8392 -144.1963 245° Southwest 470 541 34,000  Level FlightAware Transoceanic
Mon 05:11:00 PM 26.7841 -144.3286 245° Southwest 470 541 34,000  Level FlightAware Transoceanic
Mon 05:12:00 PM 26.7289 -144.4607 245° Southwest 470 541 34,000  Level FlightAware Transoceanic
Mon 05:13:00 PM 26.6735 -144.5927 245° Southwest 470 541 34,000  Level FlightAware Transoceanic
Mon 05:14:00 PM 26.6180 -144.7245 245° Southwest 470 541 34,000  Level FlightAware Transoceanic
Mon 05:14:35 PM 26.6167 -144.7167 245° Southwest 473 544 34,000  Level Oakland Oceanic (ODAPS)
Mon 05:15:00 PM 26.5625 -144.8563 245° Southwest 470 541 34,000  Level FlightAware Transoceanic
Mon 05:16:00 PM 26.5068 -144.9879 245° Southwest 470 541 34,000  Level FlightAware Transoceanic
Mon 05:17:00 PM 26.4509 -145.1194 245° Southwest 470 541 34,000  Level FlightAware Transoceanic
Mon 05:18:00 PM 26.3950 -145.2507 245° Southwest 470 541 34,000  Level FlightAware Transoceanic
Mon 05:19:00 PM 26.3389 -145.3820 244° Southwest 470 541 34,000  Level FlightAware Transoceanic
Mon 05:20:00 PM 26.2821 -145.5095 245° Southwest 473 544 34,000  Level FlightAware Transoceanic
Mon 05:21:00 PM 26.2259 -145.6412 245° Southwest 473 544 34,000  Level FlightAware Transoceanic
Mon 05:22:00 PM 26.1696 -145.7727 244° Southwest 473 544 34,000  Level FlightAware Transoceanic
Mon 05:23:00 PM 26.1132 -145.9042 244° Southwest 473 544 34,000  Level FlightAware Transoceanic
Mon 05:24:00 PM 26.0567 -146.0355 244° Southwest 473 544 34,000  Level FlightAware Transoceanic
Mon 05:25:00 PM 26.0000 -146.1667 244° Southwest 473 544 34,000  Level FlightAware Transoceanic
Mon 05:25:27 PM 26.0000 -146.1667 244° Southwest 471 542 34,000  Level Oakland Oceanic (ODAPS)
Mon 05:26:00 PM 25.9431 -146.2980 244° Southwest 473 544 34,000  Level FlightAware Transoceanic
Mon 05:27:00 PM 25.8860 -146.4293 244° Southwest 473 544 34,000  Level FlightAware Transoceanic
Mon 05:28:00 PM 25.8289 -146.5604 244° Southwest 473 544 34,000  Level FlightAware Transoceanic
Mon 05:28:26 PM 25.8333 -146.5500 244° Southwest 471 542 34,000  Level Oakland Oceanic (ODAPS)
Mon 05:29:00 PM 25.7716 -146.6914 244° Southwest 473 544 34,000  Level FlightAware Transoceanic
Mon 05:30:00 PM 25.7142 -146.8222 244° Southwest 473 544 34,000  Level FlightAware Transoceanic
Mon 05:31:00 PM 25.6567 -146.9530 244° Southwest 471 542 34,000  Level FlightAware Transoceanic
Mon 05:32:00 PM 25.5990 -147.0836 244° Southwest 471 542 34,000  Level FlightAware Transoceanic
Mon 05:33:00 PM 25.5413 -147.2140 244° Southwest 471 542 34,000  Level FlightAware Transoceanic
Mon 05:34:00 PM 25.4874 -147.3354 244° Southwest 471 542 34,000  Level FlightAware Transoceanic
Mon 05:35:00 PM 25.4293 -147.4659 244° Southwest 471 542 34,000  Level FlightAware Transoceanic
Mon 05:36:00 PM 25.3711 -147.5962 244° Southwest 471 542 34,000  Level FlightAware Transoceanic
Mon 05:37:00 PM 25.3128 -147.7264 244° Southwest 471 542 34,000  Level FlightAware Transoceanic
Mon 05:38:00 PM 25.2544 -147.8565 244° Southwest 471 542 34,000  Level FlightAware Transoceanic
Mon 05:39:00 PM 25.1959 -147.9864 244° Southwest 471 542 34,000  Level FlightAware Transoceanic
Mon 05:40:00 PM 25.1373 -148.1163 243° Southwest 471 542 34,000  Level FlightAware Transoceanic
Mon 05:41:00 PM 25.0785 -148.2460 243° Southwest 471 542 34,000  Level FlightAware Transoceanic
Mon 05:42:00 PM 25.0197 -148.3755 243° Southwest 471 542 34,000  Level FlightAware Transoceanic
Mon 05:42:18 PM 25.0333 -148.3667 243° Southwest 468 539 34,000  Level Oakland Oceanic (ODAPS)
Mon 05:43:00 PM 24.9607 -148.5050 243° Southwest 471 542 34,000  Level FlightAware Transoceanic
Mon 05:44:00 PM 24.9016 -148.6343 243° Southwest 471 542 34,000  Level FlightAware Transoceanic
Mon 05:45:00 PM 24.8424 -148.7635 243° Southwest 471 542 34,000  Level FlightAware Transoceanic
Mon 05:46:00 PM 24.7831 -148.8926 243° Southwest 471 542 34,000  Level FlightAware Transoceanic
Mon 05:47:00 PM 24.7237 -149.0216 243° Southwest 471 542 34,000  Level FlightAware Transoceanic
Mon 05:48:00 PM 24.6754 -149.1432 243° Southwest 468 539 34,000  Level FlightAware Transoceanic
Mon 05:49:00 PM 24.6153 -149.2722 243° Southwest 468 539 34,000  Level FlightAware Transoceanic
Mon 05:50:00 PM 24.5552 -149.4011 243° Southwest 468 539 34,000  Level FlightAware Transoceanic
Mon 05:51:00 PM 24.4949 -149.5299 243° Southwest 468 539 34,000  Level FlightAware Transoceanic
Mon 05:52:00 PM 24.4345 -149.6585 243° Southwest 468 539 34,000  Level FlightAware Transoceanic
Mon 05:53:00 PM 24.3740 -149.7870 243° Southwest 468 539 34,000  Level FlightAware Transoceanic
Mon 05:54:00 PM 24.3134 -149.9154 243° Southwest 468 539 34,000  Level FlightAware Transoceanic
Mon 05:55:00 PM 24.2527 -150.0436 243° Southwest 468 539 34,000  Level FlightAware Transoceanic
Mon 05:56:00 PM 24.1919 -150.1718 242° Southwest 468 539 34,000  Level FlightAware Transoceanic
Mon 05:56:10 PM 24.2167 -150.1167 243° Southwest 457 526 34,000  Level Oakland Oceanic (ODAPS)
Mon 05:57:00 PM 24.1310 -150.2998 242° Southwest 468 539 34,000  Level FlightAware Transoceanic
Mon 05:58:00 PM 24.0700 -150.4276 242° Southwest 468 539 34,000  Level FlightAware Transoceanic
Mon 05:59:00 PM 24.0089 -150.5554 242° Southwest 468 539 34,000  Level FlightAware Transoceanic
Mon 06:00:00 PM 23.9476 -150.6831 242° Southwest 468 539 34,000  Level FlightAware Transoceanic
Mon 06:01:00 PM 23.8863 -150.8106 242° Southwest 468 539 34,000  Level FlightAware Transoceanic
Mon 06:02:00 PM 23.8608 -150.8614 242° Southwest 457 526 34,000  Level FlightAware Transoceanic
Mon 06:03:00 PM 23.8011 -150.9852 242° Southwest 457 526 34,000  Level FlightAware Transoceanic
Mon 06:04:00 PM 23.7414 -151.1088 242° Southwest 457 526 34,000  Level FlightAware Transoceanic
Mon 06:05:00 PM 23.6815 -151.2323 242° Southwest 457 526 34,000  Level FlightAware Transoceanic
Mon 06:06:00 PM 23.6215 -151.3557 242° Southwest 457 526 34,000  Level FlightAware Transoceanic
Mon 06:07:00 PM 23.5615 -151.4789 242° Southwest 457 526 34,000  Level FlightAware Transoceanic
Mon 06:08:00 PM 23.5013 -151.6021 242° Southwest 457 526 34,000  Level FlightAware Transoceanic
Mon 06:09:00 PM 23.4411 -151.7251 242° Southwest 457 526 34,000  Level FlightAware Transoceanic
Mon 06:10:00 PM 23.3807 -151.8481 242° Southwest 457 526 34,000  Level FlightAware Transoceanic
Mon 06:10:02 PM 23.4000 -151.8333 241° Southwest 462 532 34,000  Level Oakland Oceanic (ODAPS)
Mon 06:11:00 PM 23.3203 -151.9709 242° Southwest 457 526 34,000  Level FlightAware Transoceanic
Mon 06:12:00 PM 23.2598 -152.0936 242° Southwest 457 526 34,000  Level FlightAware Transoceanic
Mon 06:13:00 PM 23.1991 -152.2162 242° Southwest 457 526 34,000  Level FlightAware Transoceanic
Mon 06:14:00 PM 23.1384 -152.3387 242° Southwest 457 526 34,000  Level FlightAware Transoceanic
Mon 06:15:00 PM 23.0776 -152.4611 242° Southwest 457 526 34,000  Level FlightAware Transoceanic
Mon 06:16:00 PM 23.0167 -152.5833 242° Southwest 462 532 34,000  Level FlightAware Transoceanic
Mon 06:16:32 PM 22.9833 -152.6500 242° Southwest 470 541 34,000  Level Honolulu Center
Mon 06:17:00 PM 22.9580 -152.7020 242° Southwest 462 532 34,000  Level FlightAware Transoceanic
Mon 06:17:33 PM 22.9167 -152.7667 238° Southwest 470 541 34,000  Level Honolulu Center
Mon 06:18:00 PM 22.8993 -152.8206 242° Southwest 462 532 34,000  Level FlightAware Transoceanic
Mon 06:18:33 PM 22.8667 -152.8667 242° Southwest 460 529 34,000  Level Honolulu Center
Mon 06:19:00 PM 22.8404 -152.9391 242° Southwest 462 532 34,000  Level FlightAware Transoceanic
Mon 06:19:33 PM 22.8000 -153.0167 244° Southwest 470 541 34,000  Level Honolulu Center
Mon 06:20:00 PM 22.7815 -153.0575 242° Southwest 462 532 34,000  Level FlightAware Transoceanic
Mon 06:20:33 PM 22.7667 -153.1500 255° West 460 529 34,000  Level Honolulu Center
Mon 06:21:00 PM 22.7225 -153.1758 242° Southwest 462 532 34,000  Level FlightAware Transoceanic
Mon 06:21:33 PM 22.7333 -153.2833 255° West 470 541 34,000  Level Honolulu Center
Mon 06:22:33 PM 22.6833 -153.4167 248° West 470 541 34,000  Level Honolulu Center
Mon 06:23:34 PM 22.6500 -153.5500 255° West 460 529 34,000  Level Honolulu Center
Mon 06:24:33 PM 22.6167 -153.6833 255° West 460 529 34,000  Level Honolulu Center
Mon 06:25:33 PM 22.5667 -153.8167 248° West 460 529 34,000  Level Honolulu Center
Mon 06:26:34 PM 22.5333 -153.9500 255° West 460 529 34,000  Level Honolulu Center
Mon 06:27:34 PM 22.4833 -154.0833 248° West 460 529 34,000  Level Honolulu Center
Mon 06:28:34 PM 22.4500 -154.2167 255° West 460 529 34,000  Level Honolulu Center
Mon 06:29:34 PM 22.4167 -154.3500 255° West 470 541 34,000  Level Honolulu Center
Mon 06:30:34 PM 22.3667 -154.4833 248° West 460 529 34,000  Level Honolulu Center
Mon 06:31:34 PM 22.3333 -154.6167 255° West 460 529 34,000  Level Honolulu Center
Mon 06:32:35 PM 22.2833 -154.7500 248° West 460 529 34,000  Level Honolulu Center
Mon 06:33:34 PM 22.2500 -154.8833 255° West 460 529 34,000  Level Honolulu Center
Mon 06:34:34 PM 22.2167 -155.0000 253° West 460 529 34,000  Level Honolulu Center
Mon 06:35:35 PM 22.1667 -155.1333 248° West 460 529 34,000  Level Honolulu Center
Mon 06:36:35 PM 22.1333 -155.2667 255° West 460 529 34,000  Level Honolulu Center
Mon 06:37:35 PM 22.0833 -155.4000 248° West 460 529 34,000  Level Honolulu Center
Mon 06:38:35 PM 22.0500 -155.5333 255° West 460 529 34,000  Level Honolulu Center
Mon 06:39:35 PM 22.0000 -155.6667 248° West 460 529 34,000  Level Honolulu Center
Mon 06:40:35 PM 21.9667 -155.7833 253° West 460 529 34,000  Level Honolulu Center
Mon 06:41:35 PM 21.9167 -155.9167 248° West 460 529 34,000  Level Honolulu Center
Mon 06:42:35 PM 21.8833 -156.0500 255° West 450 518 34,000 -496 Level Honolulu Center
Mon 06:43:36 PM 21.8333 -156.1833 248° West 460 529 33,000 -1,850 Descending Honolulu Center
Mon 06:44:35 PM 21.8000 -156.3000 253° West 460 529 30,300 -2,400 Descending Honolulu Center
Mon 06:45:36 PM 21.7667 -156.4333 255° West 450 518 28,200 -2,083 Descending Honolulu Center
Mon 06:46:36 PM 21.7167 -156.5500 245° Southwest 440 506 26,100 -2,200 Descending Honolulu Center
Mon 06:47:36 PM 21.6833 -156.6667 253° West 430 495 23,800 -2,300 Descending Honolulu Center
Mon 06:48:36 PM 21.6333 -156.8000 248° West 410 472 21,500 -2,250 Descending Honolulu Center
Mon 06:49:36 PM 21.6000 -156.9167 253° West 410 472 19,300 -2,150 Descending Honolulu Center
Mon 06:50:36 PM 21.5667 -157.0333 253° West 410 472 17,200 -2,083 Descending Honolulu Center
Mon 06:51:37 PM 21.5333 -157.1500 253° West 400 460 15,100 -2,033 Descending Honolulu Center
Mon 06:52:37 PM 21.4833 -157.2500 242° Southwest 390 449 13,100 -2,000 Descending Honolulu Center
Mon 06:53:37 PM 21.4500 -157.3667 253° West 380 437 11,100 -663 Descending Honolulu Center
Mon 06:58:48 PM 21.3240 -157.8480 253° West 292 336 9,000 -464 Descending FlightAware ADS-B
Mon 06:59:13 PM 21.3120 -157.8820 249° West 289 333 8,500 -1,320 Descending FlightAware ADS-B
Mon 06:59:38 PM 21.3020 -157.9110 250° West 292 336 7,900 -1,133 Descending FlightAware ADS-B
Mon 07:00:43 PM 21.2680 -158.0020 248° West 296 341 6,800 -1,015 Descending FlightAware ADS-B

Login

Don't have an account? Register now (free) for customized features, flight alerts, and more!